createdAt,value
2023-01-22T00:00:17.701Z,18.77
2023-01-22T00:02:49.206Z,19.40
2023-01-22T00:05:19.333Z,18.07
2023-01-22T00:07:49.555Z,20.90
2023-01-22T00:10:22.418Z,20.97
2023-01-22T00:12:52.354Z,20.00
2023-01-22T00:15:22.464Z,24.10
2023-01-22T00:17:52.415Z,22.57
2023-01-22T00:20:22.576Z,19.60
2023-01-22T00:22:52.517Z,18.80
2023-01-22T00:25:25.048Z,20.97
2023-01-22T00:27:55.521Z,24.13
2023-01-22T00:30:25.522Z,27.63
2023-01-22T00:32:55.491Z,22.70
2023-01-22T00:35:25.591Z,20.20
2023-01-22T00:37:56.018Z,22.60
2023-01-22T00:40:28.672Z,21.73
2023-01-22T00:42:58.594Z,21.50
2023-01-22T00:45:28.864Z,20.10
2023-01-22T00:47:58.838Z,22.50
2023-01-22T00:50:29.004Z,23.17
2023-01-22T00:52:58.925Z,23.60
2023-01-22T00:55:31.497Z,21.33
2023-01-22T00:58:01.676Z,24.00
2023-01-22T01:00:31.947Z,23.83
2023-01-22T01:03:14.477Z,22.77
2023-01-22T01:05:44.729Z,22.63
2023-01-22T01:08:14.743Z,22.20
2023-01-22T01:10:47.583Z,24.57
2023-01-22T01:13:17.610Z,26.63
2023-01-22T01:15:48.161Z,23.80
2023-01-22T01:18:20.398Z,24.97
2023-01-22T01:20:57.643Z,23.23
2023-01-22T01:23:31.499Z,23.00
2023-01-22T01:26:07.953Z,22.57
2023-01-22T01:28:39.166Z,23.60
2023-01-22T01:31:12.028Z,24.13
2023-01-22T01:33:42.142Z,21.70
2023-01-22T01:36:18.268Z,23.03
2023-01-22T01:38:50.029Z,21.73
2023-01-22T01:41:26.909Z,20.20
2023-01-22T01:44:12.094Z,25.87
2023-01-22T01:46:47.997Z,22.43
2023-01-22T01:49:32.720Z,21.77
2023-01-22T01:52:07.327Z,25.03
2023-01-22T01:54:38.691Z,22.10
2023-01-22T01:57:17.694Z,23.57
2023-01-22T01:59:51.344Z,21.53
2023-01-22T02:02:22.574Z,23.50
2023-01-22T02:04:53.995Z,24.53
2023-01-22T02:07:24.454Z,22.10
2023-01-22T02:09:54.460Z,20.10
2023-01-22T02:12:27.183Z,23.20
2023-01-22T02:14:58.131Z,22.03
2023-01-22T02:17:33.300Z,24.20
2023-01-22T02:20:03.244Z,24.23
2023-01-22T02:22:40.144Z,23.10
2023-01-22T02:25:11.821Z,22.87
2023-01-22T02:27:41.871Z,23.10
2023-01-22T02:30:13.941Z,23.53
2023-01-22T02:32:43.917Z,21.70
2023-01-22T02:35:13.901Z,22.00
2023-01-22T02:37:46.743Z,19.00
2023-01-22T02:40:17.562Z,21.83
2023-01-22T02:42:47.735Z,20.93
2023-01-22T02:45:18.156Z,21.63
2023-01-22T02:47:48.280Z,19.03
2023-01-22T02:50:18.750Z,19.27
2023-01-22T02:52:51.591Z,20.10
2023-01-22T02:55:22.038Z,19.20
2023-01-22T02:57:53.515Z,19.20
2023-01-22T03:00:24.037Z,20.43
2023-01-22T03:02:54.063Z,23.00
2023-01-22T03:05:25.421Z,21.73
2023-01-22T03:07:57.936Z,20.53
2023-01-22T03:10:30.710Z,18.33
2023-01-22T03:13:13.190Z,21.80
2023-01-22T03:15:56.697Z,21.40
2023-01-22T03:18:39.516Z,20.40
2023-01-22T03:21:18.880Z,19.70
2023-01-22T03:23:54.189Z,19.80
2023-01-22T03:26:28.960Z,20.83
2023-01-22T03:28:59.262Z,21.13
2023-01-22T03:31:29.494Z,20.07
2023-01-22T03:34:00.886Z,22.13
2023-01-22T03:36:31.500Z,23.00
2023-01-22T03:39:07.618Z,24.37
2023-01-22T03:41:37.648Z,19.60
2023-01-22T03:44:11.764Z,21.70
2023-01-22T03:46:42.457Z,18.40
2023-01-22T03:49:15.319Z,20.90
2023-01-22T03:51:47.301Z,19.93
2023-01-22T03:54:20.409Z,19.53
2023-01-22T03:56:51.427Z,20.53
2023-01-22T03:59:28.747Z,19.17
2023-01-22T04:01:58.822Z,20.30
2023-01-22T04:04:29.404Z,18.53
2023-01-22T04:06:59.473Z,21.90
2023-01-22T04:09:32.045Z,19.37
2023-01-22T04:12:02.201Z,20.50
2023-01-22T04:14:32.213Z,19.00
2023-01-22T04:17:05.264Z,19.83
2023-01-22T04:19:52.974Z,20.17
2023-01-22T04:22:41.683Z,19.70
2023-01-22T04:25:16.781Z,18.83
2023-01-22T04:27:48.291Z,15.73
2023-01-22T04:30:21.251Z,18.90
2023-01-22T04:32:56.165Z,17.97
2023-01-22T04:35:33.202Z,20.60
2023-01-22T04:38:04.200Z,19.10
2023-01-22T04:40:37.082Z,18.80
2023-01-22T04:43:10.229Z,19.43
2023-01-22T04:45:41.429Z,17.20
2023-01-22T04:48:14.101Z,19.03
2023-01-22T04:50:46.632Z,20.10
2023-01-22T04:53:16.635Z,19.13
2023-01-22T04:55:49.236Z,18.03
2023-01-22T04:58:19.306Z,17.30
2023-01-22T05:00:49.272Z,18.17
2023-01-22T05:03:20.166Z,19.00
2023-01-22T05:05:50.129Z,16.07
2023-01-22T05:08:21.303Z,19.10
2023-01-22T05:10:53.882Z,18.80
2023-01-22T05:13:31.350Z,21.10
2023-01-22T05:16:01.329Z,19.57
2023-01-22T05:18:31.441Z,18.07
2023-01-22T05:21:01.747Z,18.30
2023-01-22T05:23:33.974Z,15.20
2023-01-22T05:26:07.635Z,18.23
2023-01-22T05:28:50.454Z,20.20
2023-01-22T05:31:25.747Z,17.77
2023-01-22T05:34:03.207Z,17.77
2023-01-22T05:36:34.033Z,16.43
2023-01-22T05:39:09.750Z,15.37
2023-01-22T05:41:42.527Z,19.50
2023-01-22T05:44:15.214Z,17.50
2023-01-22T05:46:49.123Z,15.43
2023-01-22T05:49:57.253Z,18.17
2023-01-22T05:52:27.298Z,18.77
2023-01-22T05:54:59.942Z,17.20
2023-01-22T05:57:35.664Z,15.87
2023-01-22T06:00:08.576Z,16.23
2023-01-22T06:02:46.795Z,15.80
2023-01-22T06:05:18.329Z,17.43
2023-01-22T06:07:53.722Z,17.77
2023-01-22T06:10:24.996Z,15.30
2023-01-22T06:12:57.605Z,16.90
2023-01-22T06:15:27.560Z,15.37
2023-01-22T06:18:05.919Z,16.83
2023-01-22T06:20:36.702Z,17.67
2023-01-22T06:23:07.644Z,17.70
2023-01-22T06:25:37.718Z,16.53
2023-01-22T06:28:22.172Z,14.67
2023-01-22T06:30:57.387Z,15.93
2023-01-22T06:33:28.023Z,18.07
2023-01-22T06:35:58.688Z,17.50
2023-01-22T06:38:28.896Z,18.33
2023-01-22T06:41:02.834Z,17.23
2023-01-22T06:43:37.592Z,15.13
2023-01-22T06:46:08.390Z,16.00
2023-01-22T06:48:59.047Z,16.23
2023-01-22T06:51:29.030Z,16.80
2023-01-22T06:53:59.348Z,18.40
2023-01-22T06:56:30.665Z,15.67
2023-01-22T06:59:05.729Z,16.30
2023-01-22T07:01:35.703Z,18.00
2023-01-22T07:04:05.747Z,18.90
2023-01-22T07:06:35.741Z,16.33
2023-01-22T07:09:05.800Z,17.50
2023-01-22T07:11:35.822Z,14.83
2023-01-22T07:14:08.452Z,19.13
2023-01-22T07:16:38.448Z,17.67
2023-01-22T07:19:08.465Z,16.93
2023-01-22T07:21:38.413Z,18.50
2023-01-22T07:24:09.393Z,18.20
2023-01-22T07:26:39.764Z,18.77
2023-01-22T07:29:13.120Z,16.53
2023-01-22T07:31:43.132Z,16.27
2023-01-22T07:34:13.139Z,18.03
2023-01-22T07:36:43.062Z,19.47
2023-01-22T07:39:13.620Z,16.13
2023-01-22T07:41:43.569Z,16.83
2023-01-22T07:44:17.117Z,18.70
2023-01-22T07:46:47.106Z,17.13
2023-01-22T07:49:17.358Z,17.07
2023-01-22T07:51:47.420Z,17.10
2023-01-22T07:54:18.545Z,18.70
2023-01-22T07:56:48.915Z,17.40
2023-01-22T07:59:21.460Z,18.37
2023-01-22T08:01:51.457Z,18.97
2023-01-22T08:04:21.468Z,17.00
2023-01-22T08:06:51.455Z,19.70
2023-01-22T08:09:25.763Z,18.00
2023-01-22T08:11:56.151Z,18.93
2023-01-22T08:14:28.715Z,18.77
2023-01-22T08:16:58.679Z,17.60
2023-01-22T08:19:29.475Z,18.03
2023-01-22T08:21:59.783Z,18.40
2023-01-22T08:24:29.830Z,19.20
2023-01-22T08:27:00.583Z,17.37
2023-01-22T08:29:33.203Z,18.43
2023-01-22T08:32:03.291Z,16.57
2023-01-22T08:34:33.316Z,15.33
2023-01-22T08:37:03.319Z,17.07
2023-01-22T08:39:33.291Z,16.00
2023-01-22T08:42:03.286Z,17.07
2023-01-22T08:44:35.915Z,15.10
2023-01-22T08:47:06.189Z,16.83
2023-01-22T08:49:36.440Z,17.30
2023-01-22T08:52:06.698Z,18.30
2023-01-22T08:54:36.891Z,19.43
2023-01-22T08:57:07.398Z,20.50
2023-01-22T08:59:41.580Z,16.63
2023-01-22T09:02:16.289Z,19.33
2023-01-22T09:04:46.271Z,17.13
2023-01-22T09:07:16.270Z,21.47
2023-01-22T09:09:46.221Z,19.00
2023-01-22T09:12:16.213Z,17.10
2023-01-22T09:14:49.019Z,18.93
2023-01-22T09:17:19.276Z,18.23
2023-01-22T09:19:49.235Z,18.20
2023-01-22T09:22:20.328Z,15.73
2023-01-22T09:24:50.270Z,17.27
2023-01-22T09:27:20.446Z,17.17
2023-01-22T09:29:53.016Z,15.40
2023-01-22T09:32:22.952Z,16.13
2023-01-22T09:34:52.958Z,15.97
2023-01-22T09:37:23.173Z,13.97
2023-01-22T09:39:53.395Z,15.17
2023-01-22T09:42:29.560Z,13.13
2023-01-22T09:45:09.335Z,14.40
2023-01-22T09:47:48.464Z,14.30
2023-01-22T09:50:24.730Z,13.80
2023-01-22T09:52:59.641Z,15.20
2023-01-22T09:55:34.100Z,13.37
2023-01-22T09:58:12.210Z,13.53
2023-01-22T10:00:51.194Z,13.93
2023-01-22T10:03:29.577Z,13.60
2023-01-22T10:06:03.445Z,14.53
2023-01-22T10:08:40.793Z,13.43
2023-01-22T10:11:12.965Z,13.83
2023-01-22T10:13:43.233Z,13.60
2023-01-22T10:16:16.193Z,14.00
2023-01-22T10:18:56.540Z,13.10
2023-01-22T10:21:29.905Z,13.90
2023-01-22T10:24:01.266Z,12.37
2023-01-22T10:26:40.241Z,14.57
2023-01-22T10:29:15.401Z,13.23
2023-01-22T10:31:56.453Z,12.63
2023-01-22T10:34:32.524Z,12.87
2023-01-22T10:37:06.532Z,14.57
2023-01-22T10:39:46.218Z,13.60
2023-01-22T10:42:21.066Z,13.40
2023-01-22T10:44:51.519Z,12.53
2023-01-22T10:47:27.577Z,12.10
2023-01-22T10:50:15.045Z,14.17
2023-01-22T10:52:54.774Z,12.70
2023-01-22T10:55:27.729Z,13.10
2023-01-22T10:58:02.977Z,13.07
2023-01-22T11:00:50.448Z,12.03
2023-01-22T11:03:31.273Z,11.43
2023-01-22T11:06:07.780Z,11.03
2023-01-22T11:08:49.761Z,12.23
2023-01-22T11:11:26.359Z,12.37
2023-01-22T11:14:07.247Z,11.90
2023-01-22T11:16:42.414Z,13.70
2023-01-22T11:19:32.611Z,12.07
2023-01-22T11:22:15.875Z,12.47
2023-01-22T11:24:48.628Z,12.80
2023-01-22T11:27:41.445Z,12.67
2023-01-22T11:30:37.244Z,10.20
2023-01-22T11:33:24.883Z,12.10
2023-01-22T11:36:05.391Z,9.60
2023-01-22T11:38:51.378Z,11.43
2023-01-22T11:41:42.216Z,11.03
2023-01-22T11:44:51.875Z,10.67
2023-01-22T11:47:55.549Z,12.07
2023-01-22T11:50:33.881Z,10.27
2023-01-22T11:53:28.654Z,9.97
2023-01-22T11:56:19.804Z,11.80
2023-01-22T11:59:01.922Z,10.93
2023-01-22T12:01:54.943Z,10.43
2023-01-22T12:04:51.765Z,10.93
2023-01-22T12:07:43.800Z,9.33
2023-01-22T12:10:52.967Z,12.17
2023-01-22T12:13:49.018Z,10.13
2023-01-22T12:16:42.549Z,12.27
2023-01-22T12:19:51.238Z,10.57
2023-01-22T12:22:33.922Z,11.83
2023-01-22T12:25:19.411Z,12.27
2023-01-22T12:28:00.120Z,10.17
2023-01-22T12:30:44.854Z,11.10
2023-01-22T12:33:22.538Z,13.20
2023-01-22T12:35:55.684Z,11.00
2023-01-22T12:38:41.529Z,12.50
2023-01-22T12:41:37.053Z,11.27
2023-01-22T12:44:30.876Z,12.10
2023-01-22T12:47:15.329Z,12.67
2023-01-22T12:49:51.115Z,12.20
2023-01-22T12:52:34.090Z,13.30
2023-01-22T12:55:07.620Z,12.30
2023-01-22T12:57:44.001Z,13.80
2023-01-22T13:00:31.790Z,12.43
2023-01-22T13:03:02.224Z,12.90
2023-01-22T13:05:47.092Z,13.57
2023-01-22T13:08:30.529Z,15.27
2023-01-22T13:11:03.388Z,13.40
2023-01-22T13:13:37.120Z,13.87
2023-01-22T13:16:24.494Z,15.23
2023-01-22T13:18:59.788Z,13.97
2023-01-22T13:21:33.593Z,13.17
2023-01-22T13:24:07.353Z,15.00
2023-01-22T13:26:41.747Z,15.60
2023-01-22T13:29:26.915Z,13.30
2023-01-22T13:32:03.140Z,12.70
2023-01-22T13:34:33.788Z,12.97
2023-01-22T13:37:03.927Z,12.87
2023-01-22T13:39:37.097Z,12.83
2023-01-22T13:42:10.443Z,13.53
2023-01-22T13:44:47.992Z,13.93
2023-01-22T13:47:36.077Z,13.70
2023-01-22T13:50:06.853Z,15.03
2023-01-22T13:52:36.895Z,13.20
2023-01-22T13:55:18.917Z,15.27
2023-01-22T13:57:50.709Z,14.73
2023-01-22T14:00:31.873Z,15.93
2023-01-22T14:03:06.454Z,15.57
2023-01-22T14:05:38.823Z,16.77
2023-01-22T14:08:12.524Z,13.60
2023-01-22T14:10:44.210Z,13.83
2023-01-22T14:13:16.700Z,12.93
2023-01-22T14:15:59.498Z,12.60
2023-01-22T14:18:32.734Z,12.53
2023-01-22T14:21:02.726Z,12.33
2023-01-22T14:23:32.932Z,12.50
2023-01-22T14:26:07.363Z,13.80
2023-01-22T14:28:38.969Z,12.70
2023-01-22T14:31:08.956Z,16.30
2023-01-22T14:33:41.609Z,12.73
2023-01-22T14:36:12.532Z,16.00
2023-01-22T14:38:42.522Z,13.23
2023-01-22T14:41:12.465Z,12.27
2023-01-22T14:43:42.456Z,13.57
2023-01-22T14:46:12.425Z,12.57
2023-01-22T14:48:44.983Z,15.50
2023-01-22T14:51:15.289Z,12.63
2023-01-22T14:53:45.270Z,14.20
2023-01-22T14:56:15.282Z,14.07
2023-01-22T14:58:45.356Z,14.60
2023-01-22T15:01:20.996Z,12.00
2023-01-22T15:03:54.247Z,13.37
2023-01-22T15:06:25.736Z,13.50
2023-01-22T15:08:55.732Z,11.27
2023-01-22T15:11:25.734Z,12.10
2023-01-22T15:13:55.719Z,13.40
2023-01-22T15:16:25.774Z,11.67
2023-01-22T15:19:00.211Z,13.13
2023-01-22T15:21:30.262Z,13.13
2023-01-22T15:24:01.591Z,12.97
2023-01-22T15:26:36.519Z,11.33
2023-01-22T15:29:08.736Z,12.97
2023-01-22T15:31:39.872Z,13.40
2023-01-22T15:34:13.627Z,12.87
2023-01-22T15:36:43.780Z,13.53
2023-01-22T15:39:13.762Z,12.57
2023-01-22T15:41:43.826Z,12.40
2023-01-22T15:44:16.769Z,13.30
2023-01-22T15:46:47.385Z,12.93
2023-01-22T15:49:20.367Z,13.27
2023-01-22T15:51:50.342Z,12.63
2023-01-22T15:54:20.297Z,15.53
2023-01-22T15:56:50.423Z,13.10
2023-01-22T15:59:20.641Z,14.67
2023-01-22T16:01:51.619Z,13.53
2023-01-22T16:04:24.134Z,12.73
2023-01-22T16:06:54.193Z,12.07
2023-01-22T16:09:24.276Z,13.30
2023-01-22T16:11:54.405Z,13.13
2023-01-22T16:14:24.404Z,12.50
2023-01-22T16:16:54.452Z,13.07
2023-01-22T16:19:27.132Z,12.80
2023-01-22T16:21:57.395Z,12.60
2023-01-22T16:24:27.604Z,15.10
2023-01-22T16:26:57.545Z,13.70
2023-01-22T16:29:28.191Z,12.53
2023-01-22T16:31:58.585Z,12.30
2023-01-22T16:34:31.185Z,12.10
2023-01-22T16:37:01.281Z,12.43
2023-01-22T16:39:33.897Z,12.53
2023-01-22T16:42:03.980Z,13.27
2023-01-22T16:44:33.929Z,13.30
2023-01-22T16:47:03.887Z,11.70
2023-01-22T16:49:37.613Z,11.70
2023-01-22T16:52:21.952Z,12.67
2023-01-22T16:54:52.995Z,13.10
2023-01-22T16:57:23.032Z,12.53
2023-01-22T16:59:52.976Z,11.57
2023-01-22T17:02:22.934Z,13.07
2023-01-22T17:04:57.143Z,11.20
2023-01-22T17:07:33.667Z,11.90
2023-01-22T17:10:04.872Z,10.90
2023-01-22T17:12:35.051Z,11.47
2023-01-22T17:15:05.371Z,13.10
2023-01-22T17:17:35.488Z,12.10
2023-01-22T17:20:09.451Z,11.60
2023-01-22T17:22:39.467Z,12.13
2023-01-22T17:25:11.273Z,9.97
2023-01-22T17:27:41.667Z,12.27
2023-01-22T17:30:15.604Z,13.07
2023-01-22T17:32:47.618Z,13.90
2023-01-22T17:35:21.016Z,15.07
2023-01-22T17:37:51.488Z,13.63
2023-01-22T17:40:21.856Z,15.27
2023-01-22T17:42:51.805Z,14.37
2023-01-22T17:45:22.514Z,13.97
2023-01-22T17:47:52.490Z,11.83
2023-01-22T17:50:25.081Z,13.17
2023-01-22T17:52:55.873Z,14.27
2023-01-22T17:55:26.768Z,11.67
2023-01-22T17:57:59.777Z,11.97
2023-01-22T18:00:31.512Z,11.67
2023-01-22T18:03:01.579Z,12.87
2023-01-22T18:05:36.345Z,11.97
2023-01-22T18:08:06.604Z,12.07
2023-01-22T18:10:36.625Z,13.27
2023-01-22T18:13:06.647Z,10.97
2023-01-22T18:15:36.885Z,11.57
2023-01-22T18:18:07.438Z,11.90
2023-01-22T18:20:40.198Z,12.10
2023-01-22T18:23:10.159Z,12.00
2023-01-22T18:25:46.841Z,12.43
2023-01-22T18:28:17.826Z,11.37
2023-01-22T18:30:49.426Z,11.30
2023-01-22T18:33:21.366Z,12.83
2023-01-22T18:35:55.789Z,10.97
2023-01-22T18:38:27.471Z,10.97
2023-01-22T18:40:58.828Z,13.27
2023-01-22T18:43:29.180Z,12.00
2023-01-22T18:46:05.073Z,11.90
2023-01-22T18:48:35.296Z,12.07
2023-01-22T18:53:49.971Z,17.33
2023-01-22T18:56:20.099Z,15.13
2023-01-22T18:58:50.290Z,17.30
2023-01-22T19:01:23.496Z,12.80
2023-01-22T19:03:56.805Z,12.63
2023-01-22T19:06:29.910Z,15.30
2023-01-22T19:09:08.867Z,14.00
2023-01-22T19:11:42.914Z,15.03
2023-01-22T19:14:16.715Z,14.10
2023-01-22T19:16:48.634Z,13.73
2023-01-22T19:19:20.497Z,14.10
2023-01-22T19:21:58.011Z,13.67
2023-01-22T19:24:32.319Z,13.37
2023-01-22T19:27:02.311Z,14.53
2023-01-22T19:29:32.391Z,12.80
2023-01-22T19:32:02.433Z,14.63
2023-01-22T19:34:32.625Z,13.43
2023-01-22T19:37:06.390Z,12.97
2023-01-22T19:39:41.600Z,14.40
2023-01-22T19:42:11.834Z,14.60
2023-01-22T19:44:42.997Z,14.60
2023-01-22T19:47:14.464Z,12.77
2023-01-22T19:49:45.052Z,13.90
2023-01-22T19:52:16.416Z,16.90
2023-01-22T19:54:50.690Z,15.20
2023-01-22T19:57:20.795Z,14.90
2023-01-22T19:59:55.287Z,14.33
2023-01-22T20:02:25.421Z,16.10
2023-01-22T20:04:55.565Z,14.63
2023-01-22T20:07:27.155Z,14.87
2023-01-22T20:10:00.054Z,14.67
2023-01-22T20:12:30.101Z,13.97
2023-01-22T20:15:00.036Z,16.30
2023-01-22T20:17:30.123Z,15.80
2023-01-22T20:20:00.086Z,15.93
2023-01-22T20:22:30.168Z,14.50
2023-01-22T20:25:02.788Z,15.80
2023-01-22T20:27:33.360Z,16.00
2023-01-22T20:30:03.518Z,15.00
2023-01-22T20:32:33.743Z,15.67
2023-01-22T20:35:03.815Z,13.47
2023-01-22T20:37:34.221Z,14.77
2023-01-22T20:40:07.766Z,13.83
2023-01-22T20:42:37.804Z,14.20
2023-01-22T20:45:10.048Z,13.60
2023-01-22T20:47:40.933Z,13.27
2023-01-22T20:50:14.242Z,15.13
2023-01-22T20:52:44.504Z,14.43
2023-01-22T20:55:17.645Z,15.30
2023-01-22T20:57:48.096Z,16.30
2023-01-22T21:00:19.387Z,18.40
2023-01-22T21:02:52.436Z,17.63
2023-01-22T21:05:22.443Z,17.87
2023-01-22T21:07:52.477Z,19.10
2023-01-22T21:10:25.587Z,16.57
2023-01-22T21:12:55.523Z,19.53
2023-01-22T21:15:25.529Z,18.50
2023-01-22T21:17:55.715Z,18.20
2023-01-22T21:20:25.767Z,16.70
2023-01-22T21:22:56.166Z,19.10
2023-01-22T21:25:28.687Z,18.77
2023-01-22T21:27:58.748Z,19.90
2023-01-22T21:30:28.778Z,19.37
2023-01-22T21:32:59.661Z,18.93
2023-01-22T21:35:29.670Z,16.10
2023-01-22T21:37:59.633Z,19.27
2023-01-22T21:40:33.572Z,17.57
2023-01-22T21:43:16.031Z,17.07
2023-01-22T21:45:58.637Z,19.83
2023-01-22T21:48:28.960Z,19.70
2023-01-22T21:50:59.009Z,19.57
2023-01-22T21:53:29.355Z,17.10
2023-01-22T21:56:01.915Z,18.93
2023-01-22T21:58:31.959Z,16.30
2023-01-22T22:01:10.071Z,17.20
2023-01-22T22:03:40.031Z,17.93
2023-01-22T22:06:11.464Z,17.10
2023-01-22T22:08:43.597Z,17.43
2023-01-22T22:11:17.230Z,16.87
2023-01-22T22:13:47.224Z,19.00
2023-01-22T22:16:17.333Z,18.67
2023-01-22T22:18:47.313Z,18.57
2023-01-22T22:21:17.530Z,17.00
2023-01-22T22:23:47.529Z,17.23
2023-01-22T22:26:21.112Z,17.70
2023-01-22T22:28:51.088Z,16.83
2023-01-22T22:31:21.945Z,17.53
2023-01-22T22:33:56.557Z,16.40
2023-01-22T22:36:30.059Z,18.77
2023-01-22T22:39:02.224Z,17.77
2023-01-22T22:41:38.656Z,17.83
2023-01-22T22:44:10.835Z,17.10
2023-01-22T22:46:42.316Z,17.20
2023-01-22T22:49:16.218Z,17.17
2023-01-22T22:51:47.044Z,17.27
2023-01-22T22:54:19.607Z,17.10
2023-01-22T22:56:52.893Z,17.30
2023-01-22T22:59:23.145Z,17.30
2023-01-22T23:01:54.120Z,16.90
2023-01-22T23:04:24.221Z,16.77
2023-01-22T23:06:54.539Z,16.40
2023-01-22T23:09:24.952Z,18.00
2023-01-22T23:11:57.734Z,16.33
2023-01-22T23:14:28.306Z,17.97
2023-01-22T23:16:59.322Z,17.37
2023-01-22T23:19:30.435Z,17.30
2023-01-22T23:22:02.832Z,17.03
2023-01-22T23:24:32.954Z,16.83
2023-01-22T23:27:05.579Z,18.20
2023-01-22T23:29:35.800Z,17.90
2023-01-22T23:32:05.789Z,17.43
2023-01-22T23:34:35.729Z,18.03
2023-01-22T23:37:05.688Z,18.80
2023-01-22T23:39:35.685Z,17.10
2023-01-22T23:42:10.398Z,17.47
2023-01-22T23:44:40.803Z,16.27
2023-01-22T23:47:10.811Z,16.67
2023-01-22T23:49:41.104Z,18.10
2023-01-22T23:52:11.129Z,16.67
2023-01-22T23:54:41.248Z,16.50
2023-01-22T23:57:13.871Z,16.20
2023-01-22T23:59:43.903Z,19.03
